KAFF/AFF METAR and TAF weather

Enter ICAO airport designator
Station Type Date Time Source
KAFF METAR 2022/11/26 07:55 UTC NOAA

KAFF 260755Z AUTO 01011KT 10SM CLR M05/M13 A3002 RMK AO2 SLP168 T10531129


Station Type Date Time Source
KAFF Decoded METAR 2022/11/26 07:55 UTC NOAA

Air Force Academy, CO, United States (KAFF) 38-58N 104-49W 1999M
Nov 26, 2022 - 02:55 AM EST / 2022.11.26 0755 UTC
Wind: from the N (010 degrees) at 13 MPH (11 KT):0
Visibility: 10 mile(s):0
Sky conditions: clear
Temperature: 22.5 F (-5.3 C)
Windchill: 10 F (-12 C):1
Dew Point: 8.8 F (-12.9 C)
Relative Humidity: 55%
Pressure (altimeter): 30.02 in. Hg (1016 hPa)
ob: KAFF 260755Z AUTO 01011KT 10SM CLR M05/M13 A3002 RMK AO2 SLP168 T10531129
cycle: 8

Station Type Date Time Source
KAFF TAF 2022/11/22 20:09 UTC NOAA

TAF TAF KAFF 222000Z 2220/2402 16012KT 9999 BKN250 QNH3004INS WND 35009KT AFT 2302
BECMG 2308/2309 VRB06KT 9999 SCT200 520108 QNH2992INS ROTOR CONDS EXIST
BECMG 2315/2316 34012G17KT 9999 SCT100 BKN200 520009 QNH2983INS
BECMG 2400/2401 34012KT 9999 SCT180 530109 QNH2995INS WND 270V010 ROTOR CONDS EXIST TX12/2221Z TNM08/2312Z LAST NO
AMDS AFT 2300 NEXT 2812

Example: see airport list